Time;durP1;ratioP1;P1;durP2;ratioP2;P2;SDS_P1;SDS_P2;PMS_P1;PMS_P2;Temp;Humidity;BMP_temperature;BMP_pressure;BME280_temperature;BME280_humidity;BME280_pressure;Samples;Min_cycle;Max_cycle;Signal;HPM_P1;HPM_P2
2023/10/31 00:01:38;;;;;;;1.77;1.37;;;;;;;;;;5018654;28;20211;-84
2023/10/31 00:04:04;;;;;;;1.80;1.60;;;;;;;;;;5018655;28;20184;-84
2023/10/31 00:06:46;;;;;;;1.77;1.20;;;;;;;;;;5028545;28;20231;-83
2023/10/31 00:09:12;;;;;;;3.43;1.40;;;;;;;;;;5019547;28;20185;-83
2023/10/31 00:11:38;;;;;;;2.87;1.27;;;;;;;;;;5025835;28;20212;-83
2023/10/31 00:14:04;;;;;;;2.37;1.10;;;;;;;;;;5050787;28;20211;-84
2023/10/31 00:16:30;;;;;;;3.80;1.40;;;;;;;;;;5028720;28;20275;-84
2023/10/31 00:18:57;;;;;;;2.73;1.20;;;;;;;;;;5024450;28;20194;-83
2023/10/31 00:21:25;;;;;;;3.87;1.17;;;;;;;;;;5029745;28;20261;-84
2023/10/31 00:23:51;;;;;;;3.30;1.20;;;;;;;;;;5031825;28;20315;-85
2023/10/31 00:26:17;;;;;;;4.07;1.10;;;;;;;;;;5015235;28;20237;-84
2023/10/31 00:28:43;;;;;;;2.40;1.20;;;;;;;;;;5048064;28;20248;-85
2023/10/31 00:31:11;;;;;;;3.53;1.20;;;;;;;;;;5034984;28;20199;-84
2023/10/31 00:33:37;;;;;;;2.30;1.10;;;;;;;;;;5028571;28;20230;-84
2023/10/31 00:36:04;;;;;;;4.17;1.23;;;;;;;;;;5034620;28;20192;-85
2023/10/31 00:38:32;;;;;;;2.90;1.27;;;;;;;;;;5035499;28;20250;-82
2023/10/31 00:41:01;;;;;;;3.97;1.67;;;;;;;;;;5022624;28;20180;-82
2023/10/31 00:43:30;;;;;;;2.93;1.47;;;;;;;;;;5035752;28;20222;-82
2023/10/31 00:45:56;;;;;;;3.90;1.57;;;;;;;;;;5035837;28;20180;-82
2023/10/31 00:48:24;;;;;;;3.23;2.10;;;;;;;;;;5035885;28;20199;-83
2023/10/31 00:50:53;;;;;;;3.87;2.00;;;;;;;;;;5034236;28;20188;-82
2023/10/31 00:53:19;;;;;;;3.90;2.00;;;;;;;;;;5035282;28;20191;-82
2023/10/31 00:55:45;;;;;;;5.93;2.30;;;;;;;;;;5021255;28;20192;-83
2023/10/31 00:58:15;;;;;;;4.80;2.07;;;;;;;;;;5029818;28;20208;-83
2023/10/31 01:00:48;;;;;;;4.53;2.10;;;;;;;;;;5033230;28;20280;-83
2023/10/31 01:03:22;;;;;;;3.73;2.00;;;;;;;;;;5014759;28;20181;-83
2023/10/31 01:05:56;;;;;;;3.93;2.03;;;;;;;;;;5017996;28;20180;-83
2023/10/31 01:08:23;;;;;;;4.60;2.00;;;;;;;;;;5037558;28;20184;-83
2023/10/31 01:11:14;;;;;;;5.17;2.10;;;;;;;;;;5022602;28;20200;-84
2023/10/31 01:13:42;;;;;;;3.63;2.50;;;;;;;;;;5030714;28;20219;-84
2023/10/31 01:16:11;;;;;;;4.20;2.70;;;;;;;;;;5004109;28;20193;-84
2023/10/31 01:18:37;;;;;;;5.03;3.30;;;;;;;;;;5044815;28;20215;-84
2023/10/31 01:21:03;;;;;;;6.23;3.60;;;;;;;;;;5038557;28;20173;-84
2023/10/31 01:23:37;;;;;;;7.50;3.90;;;;;;;;;;5050630;28;20184;-84
2023/10/31 01:32:11;;;;;;;9.57;6.50;;;;;;;;;;5036715;28;20167;-82
2023/10/31 01:34:38;;;;;;;9.83;7.00;;;;;;;;;;5019106;28;20209;-83
2023/10/31 01:37:09;;;;;;;11.40;8.23;;;;;;;;;;5013796;28;20202;-83
2023/10/31 01:39:59;;;;;;;11.63;7.77;;;;;;;;;;5021007;28;20199;-84
2023/10/31 01:42:31;;;;;;;14.30;8.47;;;;;;;;;;5035283;28;20172;-84
2023/10/31 01:45:00;;;;;;;15.87;10.50;;;;;;;;;;5008018;28;20208;-85
2023/10/31 01:53:49;;;;;;;17.00;14.47;;;;;;;;;;5032412;28;20180;-85
2023/10/31 01:56:24;;;;;;;19.97;14.77;;;;;;;;;;5033128;28;20181;-85
2023/10/31 01:59:09;;;;;;;17.83;14.40;;;;;;;;;;5016364;28;20222;-85
2023/10/31 02:01:47;;;;;;;18.00;13.80;;;;;;;;;;5034822;28;20184;-87
2023/10/31 02:04:23;;;;;;;;;;;;;;;;;;;;;
2023/10/31 02:06:50;;;;;;;19.13;14.10;;;;;;;;;;5027981;28;20189;-87
2023/10/31 02:09:27;;;;;;;20.63;14.60;;;;;;;;;;5035195;28;20267;-87
2023/10/31 02:11:53;;;;;;;17.00;15.00;;;;;;;;;;5035568;28;20180;-86
2023/10/31 02:14:19;;;;;;;20.42;16.63;;;;;;;;;;5035789;28;20449;-87
2023/10/31 02:16:53;;;;;;;21.80;18.67;;;;;;;;;;5017966;28;20419;-85
2023/10/31 02:19:32;;;;;;;22.23;18.58;;;;;;;;;;5033627;28;20489;-85
2023/10/31 02:22:02;;;;;;;23.47;16.93;;;;;;;;;;5033894;28;20180;-85
2023/10/31 02:24:47;;;;;;;22.50;16.80;;;;;;;;;;5037870;28;20228;-85
2023/10/31 02:27:22;;;;;;;21.13;16.27;;;;;;;;;;5012322;28;20201;-85
2023/10/31 02:29:59;;;;;;;22.13;16.87;;;;;;;;;;5029420;28;20218;-85
2023/10/31 02:32:28;;;;;;;22.40;17.07;;;;;;;;;;5029778;28;20212;-85
2023/10/31 02:34:56;;;;;;;22.30;16.27;;;;;;;;;;5040474;28;20180;-84
2023/10/31 02:37:31;;;;;;;22.73;14.90;;;;;;;;;;5044898;28;20213;-84
2023/10/31 02:40:00;;;;;;;22.93;17.10;;;;;;;;;;5018096;28;20183;-83
2023/10/31 02:42:28;;;;;;;19.47;16.00;;;;;;;;;;5017951;28;20180;-82
2023/10/31 02:45:01;;;;;;;20.17;16.83;;;;;;;;;;5034777;28;20183;-85
2023/10/31 02:47:29;;;;;;;22.73;16.43;;;;;;;;;;5033316;28;20168;-85
2023/10/31 02:50:00;;;;;;;18.90;15.87;;;;;;;;;;5018164;28;20271;-82
2023/10/31 02:52:37;;;;;;;21.57;15.37;;;;;;;;;;5042424;28;20184;-82
2023/10/31 02:55:06;;;;;;;19.47;15.47;;;;;;;;;;5039635;28;20184;-82
2023/10/31 02:57:35;;;;;;;23.47;15.13;;;;;;;;;;5033529;28;20204;-82
2023/10/31 03:00:04;;;;;;;20.57;15.60;;;;;;;;;;5034310;28;20200;-82
2023/10/31 03:02:33;;;;;;;19.93;15.73;;;;;;;;;;5042938;28;20188;-82
2023/10/31 03:05:07;;;;;;;18.30;16.07;;;;;;;;;;5018649;28;20181;-83
2023/10/31 03:10:35;;;;;;;21.10;17.30;;;;;;;;;;5034742;28;20231;-85
2023/10/31 03:13:02;;;;;;;19.63;15.13;;;;;;;;;;5014300;28;20197;-85
2023/10/31 03:18:32;;;;;;;21.50;16.50;;;;;;;;;;5030171;28;20199;-85
2023/10/31 03:21:03;;;;;;;20.63;16.00;;;;;;;;;;5031231;28;20184;-84
2023/10/31 03:23:29;;;;;;;18.03;14.83;;;;;;;;;;5031996;28;20180;-84
2023/10/31 03:25:58;;;;;;;17.47;15.60;;;;;;;;;;5017098;28;20235;-84
2023/10/31 03:28:44;;;;;;;19.83;16.30;;;;;;;;;;5032770;28;20181;-84
2023/10/31 03:31:18;;;;;;;18.30;15.90;;;;;;;;;;5022838;28;20180;-84
2023/10/31 03:33:55;;;;;;;20.17;16.97;;;;;;;;;;5033892;28;20187;-84
2023/10/31 03:36:21;;;;;;;22.43;17.40;;;;;;;;;;5017439;28;20188;-83
2023/10/31 03:38:52;;;;;;;23.67;18.67;;;;;;;;;;5013740;28;20302;-83
2023/10/31 03:41:26;;;;;;;22.53;18.63;;;;;;;;;;5032870;28;20188;-81
2023/10/31 03:44:10;;;;;;;20.53;17.40;;;;;;;;;;5041132;28;20204;-81
2023/10/31 03:46:39;;;;;;;21.50;18.87;;;;;;;;;;5019329;28;20212;-82
2023/10/31 03:49:33;;;;;;;22.17;18.87;;;;;;;;;;5036733;28;20184;-82
2023/10/31 03:52:03;;;;;;;22.47;18.57;;;;;;;;;;5018296;28;20185;-82
2023/10/31 03:54:32;;;;;;;21.87;18.40;;;;;;;;;;5031458;28;20177;-82
2023/10/31 03:57:08;;;;;;;24.27;19.57;;;;;;;;;;5026391;28;20200;-84
2023/10/31 04:02:58;;;;;;;19.77;17.23;;;;;;;;;;5004650;28;20191;-84
2023/10/31 04:15:20;;;;;;;;;;;;;;;;;;;;;
2023/10/31 04:24:02;;;;;;;12.60;10.23;;;;;;;;;;4940652;28;20203;-87
2023/10/31 04:32:48;;;;;;;13.43;9.63;;;;;;;;;;4977186;28;20241;-83
2023/10/31 04:35:32;;;;;;;12.43;9.70;;;;;;;;;;5006619;28;20279;-83
2023/10/31 04:38:01;;;;;;;10.83;9.10;;;;;;;;;;4983417;28;20284;-83
2023/10/31 04:40:33;;;;;;;12.10;8.67;;;;;;;;;;4976980;28;20186;-81
2023/10/31 04:43:01;;;;;;;11.80;9.47;;;;;;;;;;4965659;28;20470;-81
2023/10/31 04:45:35;;;;;;;8.80;7.90;;;;;;;;;;4964145;28;20190;-81
2023/10/31 04:48:01;;;;;;;12.20;7.70;;;;;;;;;;4979329;28;20190;-83
2023/10/31 04:53:57;;;;;;;11.63;7.47;;;;;;;;;;4977347;28;20177;-84
2023/10/31 04:56:27;;;;;;;10.23;7.07;;;;;;;;;;4979864;28;20186;-85
2023/10/31 04:58:59;;;;;;;10.87;6.97;;;;;;;;;;4974680;28;20238;-84
2023/10/31 05:01:50;;;;;;;8.70;6.63;;;;;;;;;;4959510;28;20294;-84
2023/10/31 05:04:19;;;;;;;6.90;5.90;;;;;;;;;;4971875;28;20186;-82
2023/10/31 05:06:45;;;;;;;11.03;6.40;;;;;;;;;;4959552;28;20195;-82
2023/10/31 05:09:17;;;;;;;8.90;6.60;;;;;;;;;;4983891;28;20253;-82
2023/10/31 05:12:17;;;;;;;9.77;6.43;;;;;;;;;;4988931;28;20181;-83
2023/10/31 05:18:08;;;;;;;11.73;6.90;;;;;;;;;;5036774;28;20207;-82
2023/10/31 05:20:37;;;;;;;8.60;6.73;;;;;;;;;;5022274;28;20200;-82
2023/10/31 05:23:05;;;;;;;7.77;6.97;;;;;;;;;;5022954;28;20208;-82
2023/10/31 05:25:41;;;;;;;9.25;7.60;;;;;;;;;;5014463;28;20437;-82
2023/10/31 05:28:28;;;;;;;9.43;6.80;;;;;;;;;;5014117;28;20219;-84
2023/10/31 05:34:29;;;;;;;10.60;7.73;;;;;;;;;;5031441;28;20227;-83
2023/10/31 05:37:17;;;;;;;9.90;7.77;;;;;;;;;;5020235;23;20280;-85
2023/10/31 05:39:53;;;;;;;11.50;8.50;;;;;;;;;;5023006;28;20185;-86
2023/10/31 05:42:21;;;;;;;11.57;9.13;;;;;;;;;;4991495;28;20193;-85
2023/10/31 05:44:47;;;;;;;12.33;9.73;;;;;;;;;;5009932;28;20189;-86
2023/10/31 05:47:24;;;;;;;14.73;9.87;;;;;;;;;;5024072;28;20185;-86
2023/10/31 05:49:53;;;;;;;17.37;10.40;;;;;;;;;;5001825;28;20191;-86
2023/10/31 05:52:34;;;;;;;12.93;11.30;;;;;;;;;;5022229;28;20189;-86
2023/10/31 05:55:09;;;;;;;17.37;12.90;;;;;;;;;;5005376;28;20196;-82
2023/10/31 06:00:43;;;;;;;13.70;12.00;;;;;;;;;;4987685;28;20299;-82
2023/10/31 06:03:12;;;;;;;16.00;11.47;;;;;;;;;;4970540;28;20191;-82
2023/10/31 06:05:41;;;;;;;13.40;10.43;;;;;;;;;;4980037;28;20179;-82
2023/10/31 06:08:10;;;;;;;12.43;10.13;;;;;;;;;;4968548;28;20203;-82
2023/10/31 06:10:42;;;;;;;13.57;9.60;;;;;;;;;;4983031;28;20249;-84
2023/10/31 06:13:19;;;;;;;11.53;9.17;;;;;;;;;;4980929;28;20208;-83
2023/10/31 06:15:47;;;;;;;10.90;8.60;;;;;;;;;;4961312;28;20279;-83
2023/10/31 06:18:18;;;;;;;13.47;7.63;;;;;;;;;;4965482;28;20221;-84
2023/10/31 06:20:49;;;;;;;10.17;7.53;;;;;;;;;;4967615;28;20181;-84
2023/10/31 06:23:18;;;;;;;8.37;6.60;;;;;;;;;;4982506;28;20221;-84
2023/10/31 06:25:50;;;;;;;8.93;7.17;;;;;;;;;;4964554;28;20193;-83
2023/10/31 06:28:36;;;;;;;6.87;5.80;;;;;;;;;;4948130;28;20205;-83
2023/10/31 06:31:17;;;;;;;8.87;6.30;;;;;;;;;;4985198;28;20327;-82
2023/10/31 06:33:58;;;;;;;7.87;5.80;;;;;;;;;;4997679;28;20212;-82
2023/10/31 06:42:51;;;;;;;8.93;5.50;;;;;;;;;;5019941;28;20179;-82
2023/10/31 06:45:36;;;;;;;9.13;4.70;;;;;;;;;;4989653;28;20177;-84
2023/10/31 06:48:27;;;;;;;6.60;4.50;;;;;;;;;;5005707;28;20177;-84
2023/10/31 06:54:00;;;;;;;6.27;5.03;;;;;;;;;;5019937;28;20184;-84
2023/10/31 06:56:39;;;;;;;7.93;4.90;;;;;;;;;;4992391;28;20173;-84
2023/10/31 06:59:05;;;;;;;9.17;6.47;;;;;;;;;;4990998;28;20192;-84
2023/10/31 07:01:31;;;;;;;8.87;6.27;;;;;;;;;;5000736;28;20177;-82
2023/10/31 07:03:57;;;;;;;9.80;7.43;;;;;;;;;;5004676;28;20181;-83
2023/10/31 07:06:29;;;;;;;12.93;9.00;;;;;;;;;;5001628;28;20184;-83
2023/10/31 07:09:04;;;;;;;14.20;9.00;;;;;;;;;;4989420;28;20185;-82
2023/10/31 07:11:33;;;;;;;15.53;9.33;;;;;;;;;;4987293;28;20219;-82
2023/10/31 07:14:02;;;;;;;12.80;9.47;;;;;;;;;;5021769;28;20189;-82
2023/10/31 07:16:32;;;;;;;14.90;10.53;;;;;;;;;;4996678;28;20185;-82
2023/10/31 07:18:58;;;;;;;16.17;12.85;;;;;;;;;;4996221;28;20446;-82
2023/10/31 07:21:25;;;;;;;15.77;11.00;;;;;;;;;;4981280;28;20177;-82
2023/10/31 07:23:51;;;;;;;16.37;11.87;;;;;;;;;;4996727;28;20181;-82
2023/10/31 07:26:20;;;;;;;15.17;11.07;;;;;;;;;;4978016;28;20209;-83
2023/10/31 07:28:47;;;;;;;17.20;12.00;;;;;;;;;;4995816;28;20247;-82
2023/10/31 07:31:15;;;;;;;15.57;12.93;;;;;;;;;;4997749;28;20177;-82
2023/10/31 07:33:44;;;;;;;16.13;12.53;;;;;;;;;;4998593;28;20213;-84
2023/10/31 07:36:10;;;;;;;18.07;14.17;;;;;;;;;;4997316;28;20177;-85
2023/10/31 07:38:36;;;;;;;16.17;13.97;;;;;;;;;;4995785;28;20550;-84
2023/10/31 07:41:02;;;;;;;16.90;14.63;;;;;;;;;;4998268;28;20208;-84
2023/10/31 07:43:30;;;;;;;17.60;15.70;;;;;;;;;;4997660;28;20231;-84
2023/10/31 07:45:59;;;;;;;16.17;14.47;;;;;;;;;;4981295;28;20185;-85
2023/10/31 07:48:25;;;;;;;19.67;16.57;;;;;;;;;;4993844;28;20277;-84
2023/10/31 07:50:54;;;;;;;19.40;16.40;;;;;;;;;;4984555;28;20190;-85
2023/10/31 07:53:21;;;;;;;18.00;15.43;;;;;;;;;;4981026;28;20189;-85
2023/10/31 07:55:47;;;;;;;20.65;18.55;;;;;;;;;;4996977;28;20418;-84
2023/10/31 07:58:13;;;;;;;19.03;16.33;;;;;;;;;;4997762;28;20217;-85
2023/10/31 08:00:39;;;;;;;17.97;16.10;;;;;;;;;;4981220;28;20189;-85
2023/10/31 08:03:08;;;;;;;18.43;16.50;;;;;;;;;;5016650;28;20169;-84
2023/10/31 08:05:34;;;;;;;18.37;16.40;;;;;;;;;;5017285;28;20176;-85
2023/10/31 08:08:00;;;;;;;19.07;17.17;;;;;;;;;;5001375;28;20219;-83
2023/10/31 08:10:27;;;;;;;19.93;17.93;;;;;;;;;;4995371;28;20185;-82
2023/10/31 08:12:53;;;;;;;22.60;20.38;;;;;;;;;;4987551;28;20458;-83
2023/10/31 08:15:19;;;;;;;20.63;18.37;;;;;;;;;;4997639;28;20189;-83
2023/10/31 08:17:45;;;;;;;19.27;17.27;;;;;;;;;;4997738;28;20209;-83
2023/10/31 08:20:13;;;;;;;19.27;17.27;;;;;;;;;;4981319;28;20243;-82
2023/10/31 08:22:39;;;;;;;19.00;17.00;;;;;;;;;;5013808;28;20195;-82
2023/10/31 08:25:05;;;;;;;18.77;16.53;;;;;;;;;;4998497;28;20184;-82
2023/10/31 08:27:31;;;;;;;18.43;16.63;;;;;;;;;;4981160;28;20182;-82
2023/10/31 08:29:57;;;;;;;17.33;15.73;;;;;;;;;;4995726;28;20178;-82
2023/10/31 08:32:24;;;;;;;15.97;14.47;;;;;;;;;;4992399;28;20192;-82
2023/10/31 08:34:50;;;;;;;16.98;15.30;;;;;;;;;;4997969;28;20415;-82
2023/10/31 08:37:16;;;;;;;15.10;13.60;;;;;;;;;;4999737;28;20252;-82
2023/10/31 08:39:42;;;;;;;14.07;12.57;;;;;;;;;;5000774;28;20293;-87
2023/10/31 08:42:09;;;;;;;13.07;11.88;;;;;;;;;;4987160;28;20318;-87
2023/10/31 08:44:37;;;;;;;14.00;12.70;;;;;;;;;;4979654;28;20409;-87
2023/10/31 08:47:03;;;;;;;14.13;11.97;;;;;;;;;;4997905;28;20178;-87
2023/10/31 08:49:29;;;;;;;12.03;10.83;;;;;;;;;;5013872;28;20191;-86
2023/10/31 08:51:55;;;;;;;13.53;10.57;;;;;;;;;;4977599;28;20189;-86
2023/10/31 08:54:21;;;;;;;11.90;10.23;;;;;;;;;;4983843;28;20272;-86
2023/10/31 08:56:47;;;;;;;12.57;10.40;;;;;;;;;;4999547;28;20224;-87
2023/10/31 08:59:13;;;;;;;11.90;10.33;;;;;;;;;;4971917;28;20292;-86
2023/10/31 09:01:39;;;;;;;11.70;9.70;;;;;;;;;;4983021;28;20192;-87
2023/10/31 09:04:05;;;;;;;11.67;9.17;;;;;;;;;;4984349;28;20178;-87
2023/10/31 09:06:31;;;;;;;11.33;9.10;;;;;;;;;;5016402;28;20236;-87
2023/10/31 09:08:58;;;;;;;9.93;8.57;;;;;;;;;;4999657;28;20186;-86
2023/10/31 09:11:24;;;;;;;11.30;7.90;;;;;;;;;;4999931;28;20185;-87
2023/10/31 09:13:50;;;;;;;11.20;7.60;;;;;;;;;;4981390;28;20374;-82
2023/10/31 09:16:16;;;;;;;8.47;6.90;;;;;;;;;;4996671;28;20216;-82
2023/10/31 09:18:43;;;;;;;8.13;6.30;;;;;;;;;;4993074;28;20237;-83
2023/10/31 09:21:09;;;;;;;9.97;6.97;;;;;;;;;;4993351;28;20185;-83
2023/10/31 09:23:36;;;;;;;8.87;6.47;;;;;;;;;;4995279;28;20177;-82
2023/10/31 09:26:02;;;;;;;10.00;6.70;;;;;;;;;;4999221;28;20197;-82
2023/10/31 09:28:28;;;;;;;9.33;6.73;;;;;;;;;;4978984;28;20292;-81
2023/10/31 09:30:54;;;;;;;9.43;6.20;;;;;;;;;;4982777;28;20189;-88
2023/10/31 09:33:20;;;;;;;10.27;6.67;;;;;;;;;;4997120;28;20255;-88
2023/10/31 09:35:46;;;;;;;11.03;6.83;;;;;;;;;;4998648;28;20240;-87
2023/10/31 09:38:12;;;;;;;9.80;7.03;;;;;;;;;;4999118;28;20221;-86
2023/10/31 09:40:42;;;;;;;10.03;6.80;;;;;;;;;;4984369;28;20210;-87
2023/10/31 09:43:08;;;;;;;8.87;7.17;;;;;;;;;;4989550;28;20283;-86
2023/10/31 09:45:34;;;;;;;11.17;7.23;;;;;;;;;;4981851;28;20189;-87
2023/10/31 09:48:02;;;;;;;10.73;7.40;;;;;;;;;;4999155;28;20193;-84
2023/10/31 09:50:28;;;;;;;9.67;6.97;;;;;;;;;;5010669;28;20185;-83
2023/10/31 09:52:56;;;;;;;10.47;7.17;;;;;;;;;;5003764;28;20184;-83
2023/10/31 09:55:22;;;;;;;13.30;7.10;;;;;;;;;;5012852;28;20253;-84
2023/10/31 09:57:50;;;;;;;11.10;6.50;;;;;;;;;;4999688;28;20228;-84
2023/10/31 10:00:17;;;;;;;9.40;6.33;;;;;;;;;;5012892;28;20248;-84
2023/10/31 10:02:43;;;;;;;7.93;5.43;;;;;;;;;;4997967;28;20182;-84
2023/10/31 10:05:15;;;;;;;6.33;5.70;;;;;;;;;;4999488;28;20260;-87
2023/10/31 10:07:43;;;;;;;9.63;5.60;;;;;;;;;;4998750;28;20272;-87
2023/10/31 10:10:13;;;;;;;9.57;5.00;;;;;;;;;;4992521;28;20193;-88
2023/10/31 10:12:42;;;;;;;9.97;6.00;;;;;;;;;;4992516;28;20186;-87
2023/10/31 10:15:11;;;;;;;9.27;6.00;;;;;;;;;;4995559;28;20284;-88
2023/10/31 10:17:39;;;;;;;10.40;5.60;;;;;;;;;;4995644;28;20209;-84
2023/10/31 10:20:07;;;;;;;8.87;5.70;;;;;;;;;;4991550;28;20221;-84
2023/10/31 10:22:36;;;;;;;10.30;6.20;;;;;;;;;;4995650;28;20178;-85
2023/10/31 10:25:04;;;;;;;7.63;5.97;;;;;;;;;;4995756;28;20182;-84
2023/10/31 10:27:30;;;;;;;7.87;6.40;;;;;;;;;;4990838;28;20212;-84
2023/10/31 10:29:56;;;;;;;7.90;5.70;;;;;;;;;;4980045;28;20193;-84
2023/10/31 10:32:22;;;;;;;7.47;5.90;;;;;;;;;;4994439;28;20193;-83
2023/10/31 10:34:48;;;;;;;8.33;6.50;;;;;;;;;;4998522;28;20188;-84
2023/10/31 10:37:15;;;;;;;10.37;5.57;;;;;;;;;;5006150;28;20213;-88
2023/10/31 10:39:42;;;;;;;6.90;5.40;;;;;;;;;;4994505;28;20258;-87
2023/10/31 10:42:13;;;;;;;8.57;5.50;;;;;;;;;;4979213;28;20182;-87
2023/10/31 10:44:42;;;;;;;6.97;4.97;;;;;;;;;;4988704;28;20245;-87
2023/10/31 10:47:08;;;;;;;7.77;4.90;;;;;;;;;;4983515;28;20189;-87
2023/10/31 10:49:36;;;;;;;8.70;5.03;;;;;;;;;;4980610;28;20221;-83
2023/10/31 10:52:07;;;;;;;8.17;5.60;;;;;;;;;;4986037;28;20182;-82
2023/10/31 10:54:56;;;;;;;9.63;4.90;;;;;;;;;;4997612;28;20178;-87
2023/10/31 10:57:36;;;;;;;7.77;5.33;;;;;;;;;;4996582;28;20216;-87
2023/10/31 11:00:04;;;;;;;6.47;5.20;;;;;;;;;;4994670;28;20184;-88
2023/10/31 11:02:30;;;;;;;8.03;4.97;;;;;;;;;;4980635;28;20200;-87
2023/10/31 11:04:58;;;;;;;8.43;4.63;;;;;;;;;;4998234;28;20257;-87
2023/10/31 11:07:24;;;;;;;7.67;4.53;;;;;;;;;;4995154;28;20200;-88
2023/10/31 11:09:51;;;;;;;9.63;5.13;;;;;;;;;;4980846;28;20265;-86
2023/10/31 11:12:19;;;;;;;11.23;4.73;;;;;;;;;;4994032;28;20196;-86
2023/10/31 11:14:46;;;;;;;11.83;4.80;;;;;;;;;;4992229;28;20220;-86
2023/10/31 11:17:20;;;;;;;7.63;4.23;;;;;;;;;;4997864;28;20204;-87
2023/10/31 11:19:46;;;;;;;7.23;5.00;;;;;;;;;;4998118;28;20236;-86
2023/10/31 11:22:12;;;;;;;7.90;5.33;;;;;;;;;;4998507;28;20182;-82
2023/10/31 11:24:38;;;;;;;8.50;4.97;;;;;;;;;;4982381;28;20177;-83
2023/10/31 11:27:06;;;;;;;8.90;5.30;;;;;;;;;;4987183;28;20190;-87
2023/10/31 11:29:32;;;;;;;10.93;5.87;;;;;;;;;;4997610;28;20185;-86
2023/10/31 11:31:58;;;;;;;9.47;5.93;;;;;;;;;;4997609;28;20225;-86
2023/10/31 11:34:27;;;;;;;10.30;5.93;;;;;;;;;;4997207;28;20193;-86
2023/10/31 11:36:53;;;;;;;14.90;9.73;;;;;;;;;;4997149;28;20267;-86
2023/10/31 11:39:25;;;;;;;15.47;13.90;;;;;;;;;;4993878;28;20221;-86
2023/10/31 11:41:54;;;;;;;16.80;13.73;;;;;;;;;;4977943;28;20222;-86
2023/10/31 11:44:22;;;;;;;18.67;16.70;;;;;;;;;;4978658;28;20182;-83
2023/10/31 11:46:52;;;;;;;19.87;17.73;;;;;;;;;;4989200;28;20193;-82
2023/10/31 11:49:18;;;;;;;19.57;17.57;;;;;;;;;;4979338;28;20182;-82
2023/10/31 11:51:47;;;;;;;21.77;17.13;;;;;;;;;;4981205;28;20185;-83
2023/10/31 11:54:17;;;;;;;19.97;17.97;;;;;;;;;;4997128;28;20174;-83
2023/10/31 11:56:52;;;;;;;19.97;17.97;;;;;;;;;;4994056;28;20182;-83
2023/10/31 11:59:18;;;;;;;19.63;17.60;;;;;;;;;;4993759;28;20188;-83
2023/10/31 12:01:47;;;;;;;20.83;18.33;;;;;;;;;;4981087;28;20189;-86
2023/10/31 12:04:23;;;;;;;18.47;16.57;;;;;;;;;;4998082;28;20196;-86
2023/10/31 12:06:57;;;;;;;19.30;16.83;;;;;;;;;;4997090;28;20201;-85
2023/10/31 12:09:23;;;;;;;23.73;19.47;;;;;;;;;;4998580;28;20204;-85
2023/10/31 12:11:49;;;;;;;21.40;19.10;;;;;;;;;;4984853;28;20177;-85
2023/10/31 12:14:19;;;;;;;20.33;18.17;;;;;;;;;;5000739;28;20237;-86
2023/10/31 12:16:46;;;;;;;20.13;18.10;;;;;;;;;;5007571;28;20212;-82
2023/10/31 12:19:12;;;;;;;20.37;17.10;;;;;;;;;;4974889;28;20214;-81
2023/10/31 12:21:49;;;;;;;20.93;18.57;;;;;;;;;;5004922;22;20185;-89
2023/10/31 12:24:19;;;;;;;18.97;16.87;;;;;;;;;;5015253;28;20196;-89
2023/10/31 12:26:48;;;;;;;19.63;16.70;;;;;;;;;;5001762;28;20177;-89
2023/10/31 12:29:15;;;;;;;20.93;18.43;;;;;;;;;;4989053;28;20197;-88
2023/10/31 12:31:52;;;;;;;23.93;19.83;;;;;;;;;;5012798;28;20209;-90
2023/10/31 12:34:19;;;;;;;22.10;18.77;;;;;;;;;;4992601;28;20189;-90
2023/10/31 12:37:08;;;;;;;23.57;18.10;;;;;;;;;;4996457;28;20197;-91
2023/10/31 12:39:38;;;;;;;22.03;18.03;;;;;;;;;;4991007;28;20280;-87
2023/10/31 12:42:42;;;;;;;23.40;17.63;;;;;;;;;;4999412;28;20188;-92
2023/10/31 12:45:31;;;;;;;25.13;17.07;;;;;;;;;;4999302;28;20185;-89
2023/10/31 12:48:02;;;;;;;20.83;17.73;;;;;;;;;;4999084;28;20181;-88
2023/10/31 12:50:28;;;;;;;23.77;17.07;;;;;;;;;;4996309;28;20237;-82
2023/10/31 12:52:56;;;;;;;23.40;18.23;;;;;;;;;;4985355;28;20186;-85
2023/10/31 12:55:25;;;;;;;27.77;20.03;;;;;;;;;;4987438;28;20181;-83
2023/10/31 12:57:52;;;;;;;27.10;20.63;;;;;;;;;;4992212;28;20201;-85
2023/10/31 13:00:24;;;;;;;27.63;19.53;;;;;;;;;;4997675;28;20177;-84
2023/10/31 13:02:50;;;;;;;26.50;19.57;;;;;;;;;;4978417;28;20225;-84
2023/10/31 13:05:17;;;;;;;29.03;19.73;;;;;;;;;;4989787;28;20269;-84
2023/10/31 13:07:52;;;;;;;23.50;18.70;;;;;;;;;;4988801;28;20193;-83
2023/10/31 13:10:21;;;;;;;27.00;19.47;;;;;;;;;;4999054;28;20188;-84
2023/10/31 13:12:47;;;;;;;25.90;19.57;;;;;;;;;;4987445;28;20189;-84
2023/10/31 13:15:19;;;;;;;27.50;19.37;;;;;;;;;;4996280;28;20190;-85
2023/10/31 13:17:45;;;;;;;32.23;19.87;;;;;;;;;;4996832;28;20214;-84
2023/10/31 13:20:12;;;;;;;27.57;21.20;;;;;;;;;;4988412;28;20190;-84
2023/10/31 13:22:41;;;;;;;27.37;20.70;;;;;;;;;;4988724;28;20226;-85
2023/10/31 13:25:09;;;;;;;29.73;21.83;;;;;;;;;;4989678;28;20193;-85
2023/10/31 13:27:35;;;;;;;28.40;22.27;;;;;;;;;;4983417;28;20225;-84
2023/10/31 13:30:04;;;;;;;32.13;22.90;;;;;;;;;;4983369;28;20182;-85
2023/10/31 13:32:30;;;;;;;33.53;23.23;;;;;;;;;;4994172;28;20277;-84
2023/10/31 13:34:56;;;;;;;30.37;22.40;;;;;;;;;;4979223;28;20190;-84
2023/10/31 13:37:22;;;;;;;30.77;22.40;;;;;;;;;;4995323;28;20296;-81
2023/10/31 13:39:51;;;;;;;31.07;21.77;;;;;;;;;;4995773;28;20182;-80
2023/10/31 13:42:17;;;;;;;27.33;21.53;;;;;;;;;;4980016;28;20178;-81
2023/10/31 13:44:44;;;;;;;25.30;20.80;;;;;;;;;;4979040;28;20185;-81
2023/10/31 13:47:12;;;;;;;27.63;20.97;;;;;;;;;;4979080;28;20185;-80
2023/10/31 13:49:38;;;;;;;25.50;21.47;;;;;;;;;;4978329;28;20185;-80
2023/10/31 13:52:05;;;;;;;25.57;20.77;;;;;;;;;;4987490;28;20186;-80
2023/10/31 13:54:34;;;;;;;26.67;20.77;;;;;;;;;;4991958;28;20227;-79
2023/10/31 13:57:00;;;;;;;23.63;20.60;;;;;;;;;;4998367;28;20188;-79
2023/10/31 13:59:27;;;;;;;23.20;20.70;;;;;;;;;;4997980;28;20656;-80
2023/10/31 14:01:56;;;;;;;24.73;20.93;;;;;;;;;;5001859;28;20185;-80
2023/10/31 14:04:22;;;;;;;25.70;20.10;;;;;;;;;;4981934;28;20182;-80
2023/10/31 14:06:49;;;;;;;22.23;18.73;;;;;;;;;;4984257;28;20276;-80
2023/10/31 14:09:15;;;;;;;22.47;18.27;;;;;;;;;;4997678;28;20184;-80
2023/10/31 14:11:41;;;;;;;24.52;20.00;;;;;;;;;;4978211;28;20497;-80
2023/10/31 14:14:13;;;;;;;21.15;18.95;;;;;;;;;;4978411;28;20424;-79
2023/10/31 14:16:43;;;;;;;19.87;17.70;;;;;;;;;;4995931;28;20414;-80
2023/10/31 14:19:09;;;;;;;19.13;17.15;;;;;;;;;;4982579;28;20460;-81
2023/10/31 14:21:35;;;;;;;18.63;16.73;;;;;;;;;;4978027;28;20449;-79
2023/10/31 14:24:07;;;;;;;18.20;16.27;;;;;;;;;;4962823;28;20436;-86
2023/10/31 14:30:19;;;;;;;19.38;17.27;;;;;;;;;;5003556;28;20431;-88
2023/10/31 14:40:53;;;;;;;19.25;17.35;;;;;;;;;;5005977;28;20527;-78
2023/10/31 14:43:19;;;;;;;19.80;17.80;;;;;;;;;;5000883;28;20424;-78
2023/10/31 14:45:45;;;;;;;20.20;18.20;;;;;;;;;;4987626;28;20487;-79
2023/10/31 14:48:11;;;;;;;19.63;17.83;;;;;;;;;;5004459;28;20426;-79
2023/10/31 14:50:38;;;;;;;20.58;17.42;;;;;;;;;;5000433;28;20529;-78
2023/10/31 14:53:05;;;;;;;19.90;17.90;;;;;;;;;;5003879;28;20420;-85
2023/10/31 14:55:31;;;;;;;20.00;17.57;;;;;;;;;;4984156;28;20419;-86
2023/10/31 14:57:57;;;;;;;19.27;17.23;;;;;;;;;;4990074;28;20718;-85
2023/10/31 15:00:23;;;;;;;20.40;17.27;;;;;;;;;;4992568;28;20421;-85
2023/10/31 15:02:49;;;;;;;19.05;17.02;;;;;;;;;;5010790;28;20450;-85
2023/10/31 15:05:15;;;;;;;15.32;13.38;;;;;;;;;;4986900;28;20452;-84
2023/10/31 15:07:41;;;;;;;12.30;10.98;;;;;;;;;;4993601;28;20476;-85
2023/10/31 15:10:08;;;;;;;12.53;11.23;;;;;;;;;;4992285;28;20416;-79
2023/10/31 15:12:34;;;;;;;11.90;10.43;;;;;;;;;;5000369;28;20419;-78
2023/10/31 15:15:00;;;;;;;11.57;9.60;;;;;;;;;;4992669;28;20472;-78
2023/10/31 15:17:26;;;;;;;11.93;9.40;;;;;;;;;;4979734;28;20436;-86
2023/10/31 15:19:52;;;;;;;10.25;9.10;;;;;;;;;;4987955;28;20419;-85
2023/10/31 15:22:18;;;;;;;10.15;8.48;;;;;;;;;;4977261;28;20413;-85
2023/10/31 15:24:44;;;;;;;9.70;7.03;;;;;;;;;;4992130;28;20182;-85
2023/10/31 15:27:13;;;;;;;8.77;6.30;;;;;;;;;;4986013;28;20225;-78
2023/10/31 15:29:39;;;;;;;8.30;6.67;;;;;;;;;;4979777;28;20270;-79
2023/10/31 15:32:05;;;;;;;10.27;6.83;;;;;;;;;;5007760;28;20261;-78
2023/10/31 15:34:31;;;;;;;9.93;6.43;;;;;;;;;;4977032;28;20651;-79
2023/10/31 15:36:57;;;;;;;7.00;5.77;;;;;;;;;;4976905;28;20193;-78
2023/10/31 15:39:23;;;;;;;7.97;6.27;;;;;;;;;;4993832;28;20237;-78
2023/10/31 15:41:49;;;;;;;10.85;6.97;;;;;;;;;;5012337;28;20412;-78
2023/10/31 15:44:15;;;;;;;11.03;6.20;;;;;;;;;;4998533;28;20192;-78
2023/10/31 15:46:41;;;;;;;9.30;6.65;;;;;;;;;;5012432;28;20400;-78
2023/10/31 15:49:07;;;;;;;11.90;7.90;;;;;;;;;;4980846;28;20182;-79
2023/10/31 15:51:33;;;;;;;14.47;7.97;;;;;;;;;;5004773;28;20194;-79
2023/10/31 15:54:00;;;;;;;11.33;8.73;;;;;;;;;;5012679;28;20273;-79
2023/10/31 15:56:26;;;;;;;12.07;8.07;;;;;;;;;;5006912;28;20190;-79
2023/10/31 15:58:52;;;;;;;11.90;8.20;;;;;;;;;;5004078;28;20209;-79
2023/10/31 16:01:18;;;;;;;9.83;8.67;;;;;;;;;;5000328;28;20232;-79